createdAt,value
2022-10-28T00:00:47.449Z,4.37
2022-10-28T00:03:56.749Z,107.83
2022-10-28T00:07:03.002Z,30.13
2022-10-28T00:10:10.291Z,23.83
2022-10-28T00:13:16.441Z,12.87
2022-10-28T00:16:25.381Z,6.13
2022-10-28T00:19:32.777Z,8.53
2022-10-28T00:22:39.051Z,10.03
2022-10-28T00:25:45.330Z,14.53
2022-10-28T00:28:53.507Z,10.17
2022-10-28T00:31:59.239Z,10.67
2022-10-28T00:35:08.144Z,10.73
2022-10-28T00:38:14.012Z,7.27
2022-10-28T00:41:24.492Z,6.00
2022-10-28T00:44:56.319Z,4.00
2022-10-28T00:48:04.403Z,3.97
2022-10-28T00:51:11.957Z,5.00
2022-10-28T00:54:19.710Z,4.10
2022-10-28T00:57:30.110Z,3.67
2022-10-28T01:00:36.499Z,3.60
2022-10-28T01:03:42.698Z,5.63
2022-10-28T01:06:50.425Z,8.17
2022-10-28T01:09:56.828Z,5.63
2022-10-28T01:13:12.812Z,7.03
2022-10-28T01:16:30.911Z,6.63
2022-10-28T01:20:02.589Z,5.37
2022-10-28T01:23:19.572Z,4.83
2022-10-28T01:26:42.102Z,3.43
2022-10-28T01:30:01.243Z,4.07
2022-10-28T01:33:15.706Z,4.30
2022-10-28T01:36:33.253Z,3.40
2022-10-28T01:39:49.652Z,4.67
2022-10-28T01:43:06.584Z,5.30
2022-10-28T01:46:18.463Z,6.33
2022-10-28T01:49:32.384Z,5.57
2022-10-28T01:52:41.765Z,6.77
2022-10-28T01:55:51.264Z,5.83
2022-10-28T01:59:00.350Z,3.70
2022-10-28T02:02:06.428Z,4.53
2022-10-28T02:05:38.811Z,4.63
2022-10-28T02:08:59.540Z,27.17
2022-10-28T02:12:30.911Z,10.03
2022-10-28T02:15:44.599Z,11.50
2022-10-28T02:19:00.617Z,16.50
2022-10-28T02:22:16.996Z,8.03
2022-10-28T02:25:27.120Z,7.00
2022-10-28T02:28:41.060Z,5.20
2022-10-28T02:31:51.847Z,4.50
2022-10-28T02:35:00.690Z,3.87
2022-10-28T02:38:12.843Z,4.30
2022-10-28T02:41:28.405Z,8.13
2022-10-28T02:44:36.730Z,4.47
2022-10-28T02:47:55.431Z,5.43
2022-10-28T02:51:07.306Z,3.77
2022-10-28T02:54:17.490Z,4.80
2022-10-28T02:57:26.672Z,5.27
2022-10-28T03:00:32.754Z,5.80
2022-10-28T03:03:39.018Z,28.00
2022-10-28T03:06:45.338Z,19.83
2022-10-28T03:09:53.125Z,10.40
2022-10-28T03:12:59.079Z,7.77
2022-10-28T03:16:05.868Z,7.40
2022-10-28T03:19:11.944Z,14.73
2022-10-28T03:22:18.142Z,6.17
2022-10-28T03:25:25.624Z,3.80
2022-10-28T03:28:31.602Z,5.17
2022-10-28T03:31:37.883Z,8.77
2022-10-28T03:34:44.186Z,18.30
2022-10-28T03:37:50.636Z,20.50
2022-10-28T03:40:58.498Z,18.10
2022-10-28T03:44:04.557Z,31.50
2022-10-28T03:47:10.914Z,23.90
2022-10-28T03:50:17.506Z,19.20
2022-10-28T03:53:27.599Z,20.73
2022-10-28T03:56:40.616Z,16.40
2022-10-28T03:59:46.747Z,30.87
2022-10-28T04:02:53.879Z,66.20
2022-10-28T04:06:00.346Z,34.37
2022-10-28T04:09:06.649Z,28.87
2022-10-28T04:12:14.433Z,20.97
2022-10-28T04:15:20.731Z,24.57
2022-10-28T04:18:27.061Z,17.03
2022-10-28T04:21:33.662Z,14.77
2022-10-28T04:24:39.955Z,21.97
2022-10-28T04:27:47.967Z,28.30
2022-10-28T04:30:54.328Z,31.00
2022-10-28T04:34:01.439Z,25.67
2022-10-28T04:37:07.841Z,21.77
2022-10-28T04:40:14.391Z,18.57
2022-10-28T04:43:22.067Z,16.57
2022-10-28T04:46:28.036Z,22.27
2022-10-28T04:49:36.652Z,45.70
2022-10-28T04:52:45.242Z,31.53
2022-10-28T04:55:51.454Z,28.67
2022-10-28T04:58:59.028Z,36.43
2022-10-28T05:02:05.213Z,18.10
2022-10-28T05:05:11.355Z,12.10
2022-10-28T05:08:17.212Z,31.83
2022-10-28T05:11:23.834Z,40.77
2022-10-28T05:14:31.606Z,19.17
2022-10-28T05:17:39.070Z,19.93
2022-10-28T05:20:45.172Z,15.43
2022-10-28T05:23:51.081Z,19.47
2022-10-28T05:26:57.541Z,16.20
2022-10-28T05:30:06.282Z,23.13
2022-10-28T05:33:12.984Z,29.13
2022-10-28T05:36:19.083Z,26.67
2022-10-28T05:39:25.370Z,27.47
2022-10-28T05:42:31.816Z,17.83
2022-10-28T05:45:39.491Z,27.83
2022-10-28T05:48:45.738Z,23.83
2022-10-28T05:51:52.034Z,21.70
2022-10-28T05:54:58.378Z,16.57
2022-10-28T05:58:04.583Z,19.27
2022-10-28T06:01:12.485Z,20.00
2022-10-28T06:04:18.553Z,12.60
2022-10-28T06:07:25.474Z,19.50
2022-10-28T06:10:31.440Z,24.43
2022-10-28T06:13:36.233Z,24.23
2022-10-28T06:16:43.842Z,24.87
2022-10-28T06:19:49.994Z,41.43
2022-10-28T06:22:56.449Z,38.27
2022-10-28T06:26:04.261Z,50.43
2022-10-28T06:29:10.934Z,37.50
2022-10-28T06:32:18.502Z,32.83
2022-10-28T06:35:24.758Z,25.30
2022-10-28T06:38:31.228Z,28.87
2022-10-28T06:41:37.491Z,12.13
2022-10-28T06:44:43.815Z,11.90
2022-10-28T06:47:56.666Z,11.20
2022-10-28T06:51:02.623Z,10.80
2022-10-28T06:54:09.120Z,9.53
2022-10-28T06:57:15.680Z,9.20
2022-10-28T07:00:22.292Z,5.23
2022-10-28T07:03:29.638Z,8.97
2022-10-28T07:06:35.624Z,7.43
2022-10-28T07:09:45.143Z,12.10
2022-10-28T07:12:53.802Z,7.83
2022-10-28T07:16:01.940Z,9.97
2022-10-28T07:19:09.330Z,9.87
2022-10-28T07:22:15.406Z,10.87
2022-10-28T07:25:21.683Z,10.50
2022-10-28T07:28:29.015Z,5.23
2022-10-28T07:31:35.440Z,6.80
2022-10-28T07:34:43.164Z,9.47
2022-10-28T07:37:48.915Z,8.47
2022-10-28T07:40:55.178Z,7.33
2022-10-28T07:44:01.354Z,8.50
2022-10-28T07:47:07.650Z,5.63
2022-10-28T07:50:15.502Z,5.97
2022-10-28T07:53:24.819Z,5.67
2022-10-28T07:56:34.076Z,7.10
2022-10-28T07:59:40.240Z,6.63
2022-10-28T08:02:46.350Z,5.77
2022-10-28T08:06:01.382Z,4.77
2022-10-28T08:09:07.372Z,6.47
2022-10-28T08:12:15.697Z,4.37
2022-10-28T08:15:23.880Z,4.07
2022-10-28T08:18:30.061Z,5.03
2022-10-28T08:21:37.894Z,4.57
2022-10-28T08:24:43.965Z,5.43
2022-10-28T08:27:50.134Z,14.13
2022-10-28T08:31:09.801Z,6.03
2022-10-28T08:34:15.891Z,4.57
2022-10-28T08:37:23.409Z,2.90
2022-10-28T08:40:35.657Z,3.70
2022-10-28T08:44:00.982Z,5.23
2022-10-28T08:47:17.087Z,3.40
2022-10-28T08:50:25.934Z,3.83
2022-10-28T08:53:40.638Z,3.40
2022-10-28T08:56:48.877Z,4.20
2022-10-28T08:59:56.054Z,2.50
2022-10-28T09:03:18.028Z,3.07
2022-10-28T09:06:24.251Z,3.67
2022-10-28T09:09:32.557Z,4.73
2022-10-28T09:12:44.639Z,6.60
2022-10-28T09:15:59.725Z,6.67
2022-10-28T09:19:15.925Z,9.80
2022-10-28T09:22:28.576Z,2.97
2022-10-28T09:25:48.930Z,3.00
2022-10-28T09:29:04.276Z,3.70
2022-10-28T09:32:23.997Z,3.90
2022-10-28T09:35:34.314Z,3.47
2022-10-28T09:38:41.357Z,3.57
2022-10-28T09:41:50.614Z,4.40
2022-10-28T09:45:01.200Z,4.13
2022-10-28T09:48:15.874Z,6.27
2022-10-28T09:51:30.092Z,4.30
2022-10-28T09:54:41.065Z,3.67
2022-10-28T09:57:48.692Z,9.27
2022-10-28T10:00:55.104Z,3.27
2022-10-28T10:04:02.125Z,3.40
2022-10-28T10:07:12.522Z,3.13
2022-10-28T10:10:24.674Z,3.43
2022-10-28T10:13:38.056Z,3.83
2022-10-28T10:16:48.882Z,3.20
2022-10-28T10:20:03.988Z,3.53
2022-10-28T10:23:24.138Z,3.67
2022-10-28T10:26:34.730Z,3.37
2022-10-28T10:29:46.734Z,2.77
2022-10-28T10:32:53.859Z,3.30
2022-10-28T10:36:04.070Z,4.50
2022-10-28T10:39:23.170Z,2.67
2022-10-28T10:42:29.174Z,3.70
2022-10-28T10:45:36.824Z,4.37
2022-10-28T10:48:43.773Z,3.30
2022-10-28T10:51:53.529Z,2.67
2022-10-28T10:55:08.103Z,2.57
2022-10-28T10:58:20.058Z,2.57
2022-10-28T11:01:30.348Z,2.60
2022-10-28T11:04:36.942Z,1.83
2022-10-28T11:07:49.665Z,6.67
2022-10-28T11:11:14.380Z,2.00
2022-10-28T11:14:25.617Z,4.10
2022-10-28T11:17:35.407Z,2.20
2022-10-28T11:20:51.712Z,2.43
2022-10-28T11:24:11.445Z,1.97
2022-10-28T11:27:28.751Z,1.97
2022-10-28T11:30:47.045Z,3.43
2022-10-28T11:34:14.595Z,5.40
2022-10-28T11:37:28.610Z,2.10
2022-10-28T11:40:41.861Z,1.87
2022-10-28T11:43:55.004Z,2.23
2022-10-28T11:47:22.810Z,2.17
2022-10-28T11:50:59.510Z,3.83
2022-10-28T11:54:45.111Z,2.10
2022-10-28T11:58:06.124Z,2.30
2022-10-28T12:01:26.275Z,2.67
2022-10-28T12:04:49.967Z,2.53
2022-10-28T12:08:09.879Z,2.23
2022-10-28T12:11:29.850Z,2.20
2022-10-28T12:14:48.573Z,2.53
2022-10-28T12:18:06.062Z,2.53
2022-10-28T12:21:18.177Z,3.73
2022-10-28T12:24:27.625Z,2.73
2022-10-28T12:27:39.205Z,2.17
2022-10-28T12:30:47.596Z,4.80
2022-10-28T12:33:56.681Z,2.33
2022-10-28T12:37:08.421Z,2.53
2022-10-28T12:40:20.817Z,4.43
2022-10-28T12:43:33.773Z,2.50
2022-10-28T12:50:07.681Z,2.63
2022-10-28T12:53:35.517Z,2.30
2022-10-28T12:56:50.258Z,2.83
2022-10-28T13:00:03.161Z,4.50
2022-10-28T13:03:14.100Z,4.37
2022-10-28T13:06:52.841Z,3.33
2022-10-28T13:10:12.254Z,3.20
2022-10-28T13:13:37.054Z,3.90
2022-10-28T13:17:02.319Z,2.80
2022-10-28T13:20:18.637Z,2.70
2022-10-28T13:23:31.187Z,2.50
2022-10-28T13:26:42.497Z,3.10
2022-10-28T13:29:53.660Z,2.87
2022-10-28T13:33:07.365Z,6.27
2022-10-28T13:36:19.821Z,3.30
2022-10-28T13:39:40.562Z,3.77
2022-10-28T13:42:48.849Z,3.60
2022-10-28T13:45:57.592Z,3.10
2022-10-28T13:49:23.799Z,3.30
2022-10-28T13:52:29.774Z,3.23
2022-10-28T13:55:45.199Z,3.37
2022-10-28T13:58:54.670Z,3.93
2022-10-28T14:02:35.043Z,3.13
2022-10-28T14:05:57.394Z,2.60
2022-10-28T14:09:04.526Z,2.53
2022-10-28T14:12:19.002Z,5.40
2022-10-28T14:15:31.373Z,4.00
2022-10-28T14:18:44.365Z,6.07
2022-10-28T14:22:00.718Z,4.37
2022-10-28T14:25:54.826Z,5.70
2022-10-28T14:29:01.371Z,2.70
2022-10-28T14:32:43.849Z,2.43
2022-10-28T14:36:01.130Z,3.20
2022-10-28T14:39:33.558Z,2.43
2022-10-28T14:43:00.410Z,2.73
2022-10-28T14:46:18.034Z,2.77
2022-10-28T14:49:28.054Z,2.70
2022-10-28T14:52:38.337Z,2.83
2022-10-28T14:55:48.680Z,5.77
2022-10-28T14:58:58.772Z,9.17
2022-10-28T15:02:15.641Z,9.60
2022-10-28T15:05:24.918Z,14.27
2022-10-28T15:08:32.090Z,9.57
2022-10-28T15:11:38.111Z,12.80
2022-10-28T15:14:49.264Z,7.33
2022-10-28T15:17:56.438Z,8.80
2022-10-28T15:21:09.479Z,12.77
2022-10-28T15:24:17.121Z,9.33
2022-10-28T15:27:23.685Z,8.07
2022-10-28T15:30:30.091Z,29.67
2022-10-28T15:33:40.698Z,10.90
2022-10-28T15:36:50.482Z,26.53
2022-10-28T15:40:20.956Z,38.47
2022-10-28T15:43:28.896Z,45.13
2022-10-28T15:46:35.772Z,30.70
2022-10-28T15:49:42.636Z,36.07
2022-10-28T15:52:52.516Z,33.67
2022-10-28T15:56:20.109Z,49.50
2022-10-28T15:59:27.054Z,61.80
2022-10-28T16:02:45.980Z,44.37
2022-10-28T16:05:53.350Z,54.90
2022-10-28T16:09:02.822Z,61.47
2022-10-28T16:12:16.720Z,75.20
2022-10-28T16:15:22.830Z,99.07
2022-10-28T16:18:31.017Z,117.50
2022-10-28T16:21:39.114Z,116.00
2022-10-28T16:24:45.631Z,121.60
2022-10-28T16:27:54.958Z,103.23
2022-10-28T16:31:03.010Z,79.00
2022-10-28T16:34:15.030Z,56.43
2022-10-28T16:37:24.490Z,66.97
2022-10-28T16:40:50.505Z,68.53
2022-10-28T16:43:58.743Z,70.57
2022-10-28T16:47:12.121Z,73.87
2022-10-28T16:50:18.377Z,58.30
2022-10-28T16:53:24.908Z,78.33
2022-10-28T16:56:31.277Z,76.27
2022-10-28T16:59:38.960Z,72.63
2022-10-28T17:02:46.970Z,55.50
2022-10-28T17:05:52.865Z,25.87
2022-10-28T17:09:03.576Z,42.03
2022-10-28T17:12:14.439Z,41.90
2022-10-28T17:15:21.849Z,52.33
2022-10-28T17:18:27.648Z,50.90
2022-10-28T17:21:33.781Z,48.73
2022-10-28T17:24:40.418Z,65.67
2022-10-28T17:27:48.556Z,65.50
2022-10-28T17:30:55.757Z,71.47
2022-10-28T17:34:02.084Z,109.87
2022-10-28T17:37:08.804Z,64.87
2022-10-28T17:40:15.395Z,63.77
2022-10-28T17:43:21.551Z,58.10
2022-10-28T17:46:29.265Z,38.90
2022-10-28T17:49:36.613Z,44.70
2022-10-28T17:52:43.016Z,43.10
2022-10-28T17:55:57.121Z,42.43
2022-10-28T17:59:03.190Z,38.03
2022-10-28T18:02:12.809Z,51.97
2022-10-28T18:05:19.399Z,80.37
2022-10-28T18:08:25.846Z,27.20
2022-10-28T18:11:34.121Z,28.60
2022-10-28T18:14:40.533Z,113.53
2022-10-28T18:17:51.652Z,49.57
2022-10-28T18:20:57.811Z,13.43
2022-10-28T18:24:07.080Z,13.53
2022-10-28T18:27:13.027Z,56.67
2022-10-28T18:30:19.325Z,25.63
2022-10-28T18:33:26.842Z,13.10
2022-10-28T18:36:35.765Z,13.93
2022-10-28T18:39:41.719Z,28.63
2022-10-28T18:42:48.045Z,14.40
2022-10-28T18:45:54.499Z,12.10
2022-10-28T18:49:01.990Z,19.13
2022-10-28T18:52:08.245Z,15.37
2022-10-28T18:55:14.264Z,19.73
2022-10-28T18:58:20.638Z,14.17
2022-10-28T19:01:28.298Z,16.63
2022-10-28T19:04:36.405Z,19.23
2022-10-28T19:07:42.675Z,34.60
2022-10-28T19:10:49.821Z,41.60
2022-10-28T19:13:56.226Z,26.23
2022-10-28T19:17:03.322Z,25.13
2022-10-28T19:20:12.134Z,24.97
2022-10-28T19:23:18.404Z,21.67
2022-10-28T19:26:24.867Z,16.97
2022-10-28T19:29:31.009Z,18.40
2022-10-28T19:32:38.937Z,40.27
2022-10-28T19:35:46.441Z,56.17
2022-10-28T19:38:53.958Z,38.60
2022-10-28T19:42:00.137Z,16.03
2022-10-28T19:45:07.502Z,15.10
2022-10-28T19:48:13.822Z,17.27
2022-10-28T19:51:23.097Z,19.57
2022-10-28T19:54:29.470Z,34.10
2022-10-28T19:57:35.728Z,60.90
2022-10-28T20:00:41.783Z,49.73
2022-10-28T20:03:49.344Z,52.80
2022-10-28T20:06:57.741Z,53.53
2022-10-28T20:10:03.673Z,39.80
2022-10-28T20:13:10.304Z,30.83
2022-10-28T20:16:17.943Z,44.97
2022-10-28T20:19:24.020Z,34.60
2022-10-28T20:22:31.718Z,47.90
2022-10-28T20:25:37.740Z,26.47
2022-10-28T20:28:44.285Z,34.37
2022-10-28T20:31:50.357Z,35.97
2022-10-28T20:34:57.193Z,20.10
2022-10-28T20:38:04.753Z,15.30
2022-10-28T20:41:11.985Z,33.77
2022-10-28T20:44:18.621Z,21.80
2022-10-28T20:47:25.130Z,25.40
2022-10-28T20:50:31.282Z,18.13
2022-10-28T20:53:38.988Z,6.07
2022-10-28T20:56:45.083Z,5.47
2022-10-28T20:59:51.782Z,6.77
2022-10-28T21:02:58.365Z,8.53
2022-10-28T21:06:05.409Z,7.53
2022-10-28T21:09:12.834Z,7.20
2022-10-28T21:12:18.727Z,7.47
2022-10-28T21:15:24.992Z,16.80
2022-10-28T21:18:31.377Z,5.40
2022-10-28T21:21:37.629Z,8.77
2022-10-28T21:24:45.257Z,7.20
2022-10-28T21:27:51.332Z,21.10
2022-10-28T21:31:01.617Z,12.40
2022-10-28T21:34:08.552Z,11.53
2022-10-28T21:37:14.837Z,13.73
2022-10-28T21:40:22.618Z,8.47
2022-10-28T21:43:29.880Z,30.03
2022-10-28T21:46:36.006Z,22.53
2022-10-28T21:49:42.550Z,33.23
2022-10-28T21:52:49.064Z,11.67
2022-10-28T21:56:03.988Z,8.37
2022-10-28T21:59:10.433Z,16.93
2022-10-28T22:02:17.089Z,16.57
2022-10-28T22:05:23.289Z,6.50
2022-10-28T22:08:29.919Z,4.37
2022-10-28T22:11:37.487Z,7.87
2022-10-28T22:14:43.974Z,8.87
2022-10-28T22:17:50.538Z,9.93
2022-10-28T22:20:56.829Z,47.77
2022-10-28T22:24:02.882Z,34.23
2022-10-28T22:27:10.774Z,20.07
2022-10-28T22:30:16.944Z,15.97
2022-10-28T22:33:23.502Z,10.17
2022-10-28T22:36:31.102Z,4.97
2022-10-28T22:39:37.120Z,5.50
2022-10-28T22:42:44.941Z,5.63
2022-10-28T22:45:50.961Z,5.63
2022-10-28T22:48:57.830Z,5.13
2022-10-28T22:52:04.378Z,7.53
2022-10-28T22:55:11.489Z,5.47
2022-10-28T22:58:19.131Z,8.93
2022-10-28T23:01:26.660Z,5.23
2022-10-28T23:04:33.018Z,14.50
2022-10-28T23:07:39.247Z,7.40
2022-10-28T23:10:45.151Z,10.70
2022-10-28T23:13:53.918Z,9.03
2022-10-28T23:17:00.062Z,6.30
2022-10-28T23:20:07.121Z,7.47
2022-10-28T23:23:13.187Z,6.90
2022-10-28T23:26:19.543Z,6.70
2022-10-28T23:29:27.429Z,4.73
2022-10-28T23:32:33.366Z,5.03
2022-10-28T23:35:39.222Z,4.70
2022-10-28T23:38:45.972Z,5.27
2022-10-28T23:41:52.017Z,5.10
2022-10-28T23:44:59.661Z,4.33
2022-10-28T23:48:05.862Z,4.23
2022-10-28T23:51:12.000Z,5.70
2022-10-28T23:54:18.253Z,7.13
2022-10-28T23:57:25.092Z,3.97
